NKS1 KSNA-KOAK
Flight info
| Callsign | NKS1 |
|---|---|
| Flight time | 1h 5m |
| Altitude | 38000 |
| Route | HHERO3 OROSZ COREZ RGOOD EMZOH4 |
| Aircraft | A20N/M-SDE2E3FGHIRWXY/LB1 |
Departure
| Time | 2026-04-30 19:50 |
|---|---|
| Airport | John Wayne Orange County International Airport (KSNA) |
Arrival
| Time | 2026-04-30 20:56 |
|---|---|
| Airport | San Francisco Bay Oakland International Airport (KOAK) |
| Time | Latitude | Longitude | Altitude | Speed | Heading |
|---|---|---|---|---|---|
| 2026-04-30 19:37 | 33.67832 | -117.86305 | 56 ft | 0 kts | 117° |
| 2026-04-30 19:45 | 33.67834 | -117.86310 | 58 ft | 2 kts | 116° |
| 2026-04-30 19:45 | 33.67841 | -117.86325 | 53 ft | 2 kts | 115° |
| 2026-04-30 19:45 | 33.67846 | -117.86340 | 55 ft | 2 kts | 110° |
| 2026-04-30 19:45 | 33.67850 | -117.86356 | 56 ft | 2 kts | 95° |
| 2026-04-30 19:46 | 33.67847 | -117.86372 | 55 ft | 2 kts | 36° |
| 2026-04-30 19:46 | 33.67843 | -117.86375 | 53 ft | 1 kts | 30° |
| 2026-04-30 19:47 | 33.67846 | -117.86373 | 54 ft | 6 kts | 30° |
| 2026-04-30 19:47 | 33.67922 | -117.86324 | 53 ft | 28 kts | 26° |
| 2026-04-30 19:47 | 33.68043 | -117.86466 | 52 ft | 20 kts | 295° |
| 2026-04-30 19:47 | 33.68065 | -117.86517 | 50 ft | 0 kts | 298° |
| 2026-04-30 19:48 | 33.68068 | -117.86522 | 54 ft | 2 kts | 298° |
| 2026-04-30 19:48 | 33.68072 | -117.86541 | 53 ft | 3 kts | 279° |
| 2026-04-30 19:48 | 33.68068 | -117.86564 | 53 ft | 2 kts | 250° |
| 2026-04-30 19:49 | 33.68056 | -117.86581 | 52 ft | 2 kts | 222° |
| 2026-04-30 19:49 | 33.67920 | -117.86660 | 56 ft | 0 kts | 209° |
| 2026-04-30 19:49 | 33.67917 | -117.86663 | 52 ft | 7 kts | 209° |
| 2026-04-30 19:50 | 33.67654 | -117.86829 | 61 ft | 78 kts | 208° |
| 2026-04-30 19:50 | 33.66986 | -117.87252 | 72 ft | 139 kts | 206° |
| 2026-04-30 19:50 | 33.66088 | -117.87845 | 525 ft | 150 kts | 211° |
| 2026-04-30 19:50 | 33.65138 | -117.88353 | 1240 ft | 152 kts | 200° |
| 2026-04-30 19:51 | 33.64058 | -117.88744 | 1791 ft | 178 kts | 197° |
| 2026-04-30 19:51 | 33.62767 | -117.89116 | 2278 ft | 202 kts | 193° |
| 2026-04-30 19:51 | 33.61292 | -117.89434 | 2659 ft | 233 kts | 188° |
| 2026-04-30 19:51 | 33.59568 | -117.89678 | 3104 ft | 261 kts | 185° |
| 2026-04-30 19:52 | 33.57717 | -117.90045 | 3749 ft | 278 kts | 197° |
| 2026-04-30 19:52 | 33.56039 | -117.91207 | 4655 ft | 282 kts | 219° |
| 2026-04-30 19:52 | 33.54558 | -117.92776 | 5547 ft | 286 kts | 223° |
| 2026-04-30 19:52 | 33.53111 | -117.94427 | 6493 ft | 288 kts | 223° |
| 2026-04-30 19:53 | 33.51658 | -117.96095 | 7272 ft | 290 kts | 223° |
| 2026-04-30 19:53 | 33.50195 | -117.97764 | 7738 ft | 292 kts | 222° |
| 2026-04-30 19:53 | 33.48717 | -117.99462 | 7901 ft | 295 kts | 225° |
| 2026-04-30 19:53 | 33.47471 | -118.01409 | 8090 ft | 296 kts | 237° |
| 2026-04-30 19:54 | 33.46754 | -118.02808 | 8498 ft | 299 kts | 239° |
| 2026-04-30 19:54 | 33.45694 | -118.04968 | 9503 ft | 301 kts | 239° |
| 2026-04-30 19:54 | 33.44637 | -118.07139 | 10505 ft | 306 kts | 239° |
| 2026-04-30 19:54 | 33.43528 | -118.09409 | 11023 ft | 326 kts | 239° |
| 2026-04-30 19:55 | 33.42374 | -118.11802 | 11745 ft | 336 kts | 243° |
| 2026-04-30 19:55 | 33.41546 | -118.14421 | 12651 ft | 339 kts | 260° |
| 2026-04-30 19:55 | 33.41488 | -118.17225 | 13615 ft | 339 kts | 279° |
| 2026-04-30 19:55 | 33.41936 | -118.20000 | 14460 ft | 341 kts | 285° |
| 2026-04-30 19:56 | 33.42491 | -118.22788 | 15230 ft | 347 kts | 285° |
| 2026-04-30 19:56 | 33.43064 | -118.25621 | 15989 ft | 353 kts | 286° |
| 2026-04-30 19:56 | 33.43652 | -118.28498 | 16759 ft | 358 kts | 288° |
| 2026-04-30 19:56 | 33.44526 | -118.31294 | 17517 ft | 359 kts | 298° |
| 2026-04-30 19:57 | 33.45592 | -118.33868 | 17857 ft | 334 kts | 301° |
| 2026-04-30 19:57 | 33.46692 | -118.36369 | 17991 ft | 349 kts | 301° |
| 2026-04-30 19:57 | 33.47858 | -118.38994 | 18463 ft | 361 kts | 302° |
| 2026-04-30 19:57 | 33.49042 | -118.41682 | 19060 ft | 367 kts | 302° |
| 2026-04-30 19:58 | 33.50382 | -118.44287 | 19712 ft | 367 kts | 312° |
| 2026-04-30 19:58 | 33.52208 | -118.46386 | 20370 ft | 364 kts | 329° |
| 2026-04-30 19:58 | 33.54467 | -118.47697 | 21030 ft | 361 kts | 346° |
| 2026-04-30 19:58 | 33.56943 | -118.48100 | 21662 ft | 361 kts | 2° |
| 2026-04-30 19:59 | 33.59457 | -118.47885 | 22305 ft | 363 kts | 7° |
| 2026-04-30 19:59 | 33.61981 | -118.47531 | 22945 ft | 367 kts | 8° |
| 2026-04-30 19:59 | 33.67098 | -118.46792 | 24110 ft | 373 kts | 7° |
| 2026-04-30 20:00 | 33.69687 | -118.46430 | 24654 ft | 376 kts | 7° |
| 2026-04-30 20:00 | 33.72292 | -118.46091 | 25195 ft | 378 kts | 5° |
| 2026-04-30 20:00 | 33.74928 | -118.45958 | 25714 ft | 380 kts | 1° |
| 2026-04-30 20:00 | 33.77585 | -118.45938 | 26165 ft | 384 kts | 0° |
| 2026-04-30 20:01 | 33.82924 | -118.45950 | 27142 ft | 388 kts | 0° |
| 2026-04-30 20:01 | 33.85634 | -118.45957 | 27634 ft | 390 kts | 0° |
| 2026-04-30 20:01 | 33.88356 | -118.45962 | 28095 ft | 392 kts | 0° |
| 2026-04-30 20:02 | 33.93848 | -118.45971 | 28988 ft | 397 kts | 360° |
| 2026-04-30 20:02 | 33.96612 | -118.45984 | 29426 ft | 399 kts | 358° |
| 2026-04-30 20:03 | 34.02115 | -118.47045 | 30158 ft | 406 kts | 342° |
| 2026-04-30 20:03 | 34.04761 | -118.48262 | 30505 ft | 408 kts | 339° |
| 2026-04-30 20:03 | 34.07390 | -118.49589 | 30839 ft | 411 kts | 338° |
| 2026-04-30 20:03 | 34.10024 | -118.50939 | 31180 ft | 413 kts | 338° |
| 2026-04-30 20:04 | 34.12673 | -118.52298 | 31478 ft | 415 kts | 338° |
| 2026-04-30 20:04 | 34.15334 | -118.53658 | 31816 ft | 417 kts | 338° |
| 2026-04-30 20:04 | 34.18026 | -118.55031 | 31925 ft | 424 kts | 338° |
| 2026-04-30 20:05 | 34.23579 | -118.57864 | 32066 ft | 439 kts | 338° |
| 2026-04-30 20:05 | 34.26363 | -118.59287 | 32861 ft | 428 kts | 338° |
| 2026-04-30 20:05 | 34.31686 | -118.61994 | 34456 ft | 407 kts | 338° |
| 2026-04-30 20:06 | 34.34299 | -118.63287 | 34802 ft | 406 kts | 338° |
| 2026-04-30 20:06 | 34.36914 | -118.64576 | 35103 ft | 406 kts | 338° |
| 2026-04-30 20:06 | 34.39467 | -118.65833 | 35402 ft | 405 kts | 338° |
| 2026-04-30 20:06 | 34.42064 | -118.67162 | 35641 ft | 406 kts | 334° |
| 2026-04-30 20:07 | 34.44572 | -118.68734 | 35952 ft | 405 kts | 332° |
| 2026-04-30 20:07 | 34.47029 | -118.70401 | 36219 ft | 405 kts | 330° |
| 2026-04-30 20:07 | 34.51881 | -118.73846 | 36782 ft | 404 kts | 329° |
| 2026-04-30 20:08 | 34.54297 | -118.75580 | 37054 ft | 403 kts | 329° |
| 2026-04-30 20:08 | 34.56707 | -118.77304 | 37349 ft | 402 kts | 330° |
| 2026-04-30 20:08 | 34.59119 | -118.79023 | 37591 ft | 402 kts | 329° |
| 2026-04-30 20:08 | 34.61539 | -118.80740 | 37756 ft | 403 kts | 330° |
| 2026-04-30 20:09 | 34.63960 | -118.82463 | 37917 ft | 405 kts | 329° |
| 2026-04-30 20:09 | 34.71382 | -118.87730 | 37966 ft | 420 kts | 329° |
| 2026-04-30 20:10 | 34.76488 | -118.91359 | 37976 ft | 431 kts | 329° |
| 2026-04-30 20:10 | 34.79085 | -118.93210 | 37976 ft | 435 kts | 329° |
| 2026-04-30 20:11 | 34.86860 | -118.98758 | 39334 ft | 414 kts | 329° |
| 2026-04-30 20:11 | 34.89329 | -119.00530 | 39586 ft | 413 kts | 328° |
| 2026-04-30 20:11 | 34.91815 | -119.02326 | 39552 ft | 419 kts | 328° |
| 2026-04-30 20:12 | 34.96864 | -119.05996 | 39431 ft | 422 kts | 329° |
| 2026-04-30 20:12 | 34.99386 | -119.07795 | 38797 ft | 420 kts | 329° |
| 2026-04-30 20:12 | 35.01900 | -119.09575 | 38208 ft | 414 kts | 329° |
| 2026-04-30 20:13 | 35.04353 | -119.11312 | 38008 ft | 403 kts | 329° |
| 2026-04-30 20:13 | 35.09133 | -119.14718 | 37985 ft | 401 kts | 329° |
| 2026-04-30 20:14 | 35.13948 | -119.18174 | 37993 ft | 402 kts | 329° |
| 2026-04-30 20:14 | 35.18764 | -119.21642 | 37985 ft | 402 kts | 328° |
| 2026-04-30 20:15 | 35.23583 | -119.25119 | 37962 ft | 402 kts | 328° |
| 2026-04-30 20:15 | 35.28402 | -119.28599 | 37972 ft | 402 kts | 328° |
| 2026-04-30 20:16 | 35.33214 | -119.32079 | 37975 ft | 402 kts | 328° |
| 2026-04-30 20:16 | 35.38025 | -119.35562 | 37977 ft | 402 kts | 328° |
| 2026-04-30 20:16 | 35.40429 | -119.37305 | 37719 ft | 401 kts | 328° |
| 2026-04-30 20:17 | 35.42833 | -119.39048 | 37460 ft | 401 kts | 328° |
| 2026-04-30 20:17 | 35.45234 | -119.40792 | 37193 ft | 402 kts | 328° |
| 2026-04-30 20:17 | 35.47641 | -119.42540 | 36927 ft | 402 kts | 328° |
| 2026-04-30 20:17 | 35.50052 | -119.44293 | 36674 ft | 403 kts | 328° |
| 2026-04-30 20:18 | 35.52464 | -119.46048 | 36416 ft | 403 kts | 328° |
| 2026-04-30 20:18 | 35.54856 | -119.47850 | 36173 ft | 403 kts | 324° |
| 2026-04-30 20:18 | 35.57092 | -119.49926 | 35928 ft | 403 kts | 321° |
| 2026-04-30 20:18 | 35.59273 | -119.52093 | 35687 ft | 404 kts | 320° |
| 2026-04-30 20:19 | 35.61444 | -119.54285 | 35424 ft | 404 kts | 320° |
| 2026-04-30 20:19 | 35.62878 | -119.55741 | 35260 ft | 404 kts | 320° |
| 2026-04-30 20:19 | 35.65775 | -119.58692 | 34995 ft | 405 kts | 320° |
| 2026-04-30 20:19 | 35.67943 | -119.60905 | 34788 ft | 405 kts | 320° |
| 2026-04-30 20:20 | 35.70105 | -119.63116 | 34556 ft | 404 kts | 320° |
| 2026-04-30 20:20 | 35.72262 | -119.65323 | 34332 ft | 402 kts | 320° |
| 2026-04-30 20:20 | 35.74409 | -119.67521 | 34095 ft | 401 kts | 320° |
| 2026-04-30 20:20 | 35.76545 | -119.69710 | 33839 ft | 399 kts | 320° |
| 2026-04-30 20:21 | 35.78670 | -119.71891 | 33581 ft | 397 kts | 320° |
| 2026-04-30 20:21 | 35.80762 | -119.74038 | 33317 ft | 396 kts | 320° |
| 2026-04-30 20:21 | 35.82873 | -119.76207 | 33055 ft | 395 kts | 320° |
| 2026-04-30 20:21 | 35.85006 | -119.78399 | 32793 ft | 393 kts | 320° |
| 2026-04-30 20:22 | 35.87103 | -119.80557 | 32652 ft | 393 kts | 320° |
| 2026-04-30 20:22 | 35.89168 | -119.82682 | 32501 ft | 392 kts | 320° |
| 2026-04-30 20:22 | 35.91227 | -119.84876 | 32337 ft | 390 kts | 317° |
| 2026-04-30 20:22 | 35.93200 | -119.87163 | 32187 ft | 389 kts | 316° |
| 2026-04-30 20:23 | 35.95152 | -119.89474 | 32029 ft | 388 kts | 316° |
| 2026-04-30 20:23 | 35.97095 | -119.91783 | 31880 ft | 387 kts | 316° |
| 2026-04-30 20:23 | 35.99037 | -119.94089 | 31734 ft | 387 kts | 316° |
| 2026-04-30 20:23 | 36.00974 | -119.96388 | 31590 ft | 386 kts | 316° |
| 2026-04-30 20:24 | 36.02908 | -119.98685 | 31445 ft | 385 kts | 316° |
| 2026-04-30 20:24 | 36.04838 | -120.00978 | 31303 ft | 385 kts | 316° |
| 2026-04-30 20:24 | 36.06765 | -120.03267 | 31154 ft | 384 kts | 316° |
| 2026-04-30 20:24 | 36.08688 | -120.05555 | 31005 ft | 383 kts | 316° |
| 2026-04-30 20:25 | 36.12522 | -120.10119 | 30722 ft | 382 kts | 316° |
| 2026-04-30 20:25 | 36.14433 | -120.12395 | 30568 ft | 381 kts | 316° |
| 2026-04-30 20:26 | 36.17737 | -120.16336 | 30322 ft | 380 kts | 316° |
| 2026-04-30 20:26 | 36.21538 | -120.20875 | 30046 ft | 385 kts | 316° |
| 2026-04-30 20:26 | 36.23503 | -120.23225 | 29872 ft | 401 kts | 316° |
| 2026-04-30 20:27 | 36.27680 | -120.28224 | 29516 ft | 432 kts | 316° |
| 2026-04-30 20:27 | 36.32043 | -120.33453 | 29184 ft | 436 kts | 316° |
| 2026-04-30 20:28 | 36.36392 | -120.38676 | 28855 ft | 434 kts | 316° |
| 2026-04-30 20:28 | 36.40719 | -120.43881 | 28524 ft | 432 kts | 316° |
| 2026-04-30 20:29 | 36.44972 | -120.49005 | 28217 ft | 414 kts | 316° |
| 2026-04-30 20:30 | 36.50947 | -120.56217 | 28005 ft | 396 kts | 316° |
| 2026-04-30 20:30 | 36.57017 | -120.63219 | 27627 ft | 396 kts | 318° |
| 2026-04-30 20:31 | 36.63013 | -120.69842 | 26889 ft | 393 kts | 318° |
| 2026-04-30 20:32 | 36.69028 | -120.76510 | 26163 ft | 389 kts | 318° |
| 2026-04-30 20:32 | 36.73056 | -120.80989 | 25646 ft | 387 kts | 318° |
| 2026-04-30 20:33 | 36.75063 | -120.83223 | 25212 ft | 386 kts | 319° |
| 2026-04-30 20:33 | 36.79045 | -120.87649 | 24221 ft | 381 kts | 319° |
| 2026-04-30 20:33 | 36.81026 | -120.89843 | 23706 ft | 379 kts | 319° |
| 2026-04-30 20:34 | 36.84942 | -120.94184 | 22656 ft | 373 kts | 319° |
| 2026-04-30 20:34 | 36.88787 | -120.98452 | 21698 ft | 367 kts | 319° |
| 2026-04-30 20:35 | 36.90692 | -121.00568 | 21220 ft | 365 kts | 319° |
| 2026-04-30 20:35 | 36.92585 | -121.02674 | 20741 ft | 364 kts | 319° |
| 2026-04-30 20:35 | 36.96342 | -121.06857 | 19771 ft | 360 kts | 319° |
| 2026-04-30 20:36 | 36.98204 | -121.08932 | 19300 ft | 358 kts | 320° |
| 2026-04-30 20:36 | 37.00059 | -121.11000 | 18822 ft | 356 kts | 320° |
| 2026-04-30 20:36 | 37.03738 | -121.15107 | 17822 ft | 353 kts | 320° |
| 2026-04-30 20:37 | 37.05559 | -121.17142 | 17366 ft | 350 kts | 319° |
| 2026-04-30 20:37 | 37.07369 | -121.19166 | 16900 ft | 348 kts | 320° |
| 2026-04-30 20:37 | 37.09169 | -121.21177 | 16433 ft | 346 kts | 319° |
| 2026-04-30 20:37 | 37.10958 | -121.23183 | 15963 ft | 344 kts | 319° |
| 2026-04-30 20:38 | 37.12739 | -121.25182 | 15478 ft | 343 kts | 319° |
| 2026-04-30 20:38 | 37.14491 | -121.27192 | 14999 ft | 341 kts | 318° |
| 2026-04-30 20:38 | 37.16226 | -121.29206 | 14518 ft | 339 kts | 318° |
| 2026-04-30 20:39 | 37.19675 | -121.33182 | 13583 ft | 335 kts | 321° |
| 2026-04-30 20:39 | 37.21668 | -121.34569 | 13041 ft | 334 kts | 343° |
| 2026-04-30 20:39 | 37.23953 | -121.34829 | 12947 ft | 332 kts | 6° |
| 2026-04-30 20:40 | 37.28399 | -121.33203 | 12946 ft | 334 kts | 14° |
| 2026-04-30 20:40 | 37.30641 | -121.32453 | 12942 ft | 334 kts | 13° |
| 2026-04-30 20:40 | 37.32886 | -121.31714 | 12945 ft | 334 kts | 14° |
| 2026-04-30 20:41 | 37.37375 | -121.30237 | 12935 ft | 333 kts | 14° |
| 2026-04-30 20:41 | 37.39636 | -121.29642 | 12870 ft | 332 kts | 6° |
| 2026-04-30 20:41 | 37.41959 | -121.29620 | 12164 ft | 338 kts | 352° |
| 2026-04-30 20:41 | 37.44204 | -121.30515 | 11386 ft | 343 kts | 332° |
| 2026-04-30 20:42 | 37.45507 | -121.31701 | 11023 ft | 342 kts | 317° |
| 2026-04-30 20:42 | 37.46871 | -121.34047 | 10685 ft | 335 kts | 296° |
| 2026-04-30 20:42 | 37.47580 | -121.39737 | 9753 ft | 329 kts | 271° |
| 2026-04-30 20:43 | 37.47624 | -121.42613 | 9196 ft | 327 kts | 271° |
| 2026-04-30 20:43 | 37.47661 | -121.45454 | 8702 ft | 323 kts | 271° |
| 2026-04-30 20:43 | 37.47705 | -121.48264 | 8202 ft | 319 kts | 271° |
| 2026-04-30 20:44 | 37.47805 | -121.53745 | 7474 ft | 300 kts | 272° |
| 2026-04-30 20:44 | 37.47853 | -121.56298 | 7260 ft | 283 kts | 271° |
| 2026-04-30 20:44 | 37.47940 | -121.60962 | 6936 ft | 251 kts | 272° |
| 2026-04-30 20:45 | 37.48025 | -121.65085 | 6548 ft | 223 kts | 272° |
| 2026-04-30 20:45 | 37.48072 | -121.67029 | 6238 ft | 222 kts | 274° |
| 2026-04-30 20:45 | 37.48398 | -121.68912 | 6180 ft | 221 kts | 295° |
| 2026-04-30 20:46 | 37.50976 | -121.73710 | 6174 ft | 221 kts | 306° |
| 2026-04-30 20:46 | 37.51879 | -121.75272 | 6161 ft | 220 kts | 306° |
| 2026-04-30 20:47 | 37.53439 | -121.78570 | 6076 ft | 219 kts | 292° |
| 2026-04-30 20:47 | 37.53954 | -121.80380 | 5654 ft | 220 kts | 289° |
| 2026-04-30 20:48 | 37.54911 | -121.84035 | 4848 ft | 217 kts | 289° |
| 2026-04-30 20:48 | 37.55383 | -121.85836 | 4696 ft | 217 kts | 289° |
| 2026-04-30 20:48 | 37.55854 | -121.87620 | 4341 ft | 217 kts | 289° |
| 2026-04-30 20:48 | 37.56328 | -121.89413 | 3971 ft | 215 kts | 289° |
| 2026-04-30 20:49 | 37.56799 | -121.91195 | 3607 ft | 214 kts | 289° |
| 2026-04-30 20:49 | 37.57266 | -121.92962 | 3406 ft | 212 kts | 289° |
| 2026-04-30 20:49 | 37.57732 | -121.94725 | 3277 ft | 211 kts | 289° |
| 2026-04-30 20:50 | 37.58659 | -121.98226 | 2960 ft | 208 kts | 289° |
| 2026-04-30 20:50 | 37.59112 | -121.99947 | 2657 ft | 206 kts | 289° |
| 2026-04-30 20:50 | 37.59564 | -122.01658 | 2575 ft | 207 kts | 289° |
| 2026-04-30 20:50 | 37.60021 | -122.03392 | 2672 ft | 208 kts | 289° |
| 2026-04-30 20:51 | 37.60476 | -122.05118 | 2689 ft | 207 kts | 289° |
| 2026-04-30 20:51 | 37.61483 | -122.08347 | 2378 ft | 181 kts | 303° |
| 2026-04-30 20:51 | 37.62212 | -122.09540 | 2248 ft | 161 kts | 310° |
| 2026-04-30 20:52 | 37.62893 | -122.10537 | 2142 ft | 141 kts | 309° |
| 2026-04-30 20:52 | 37.63502 | -122.11442 | 1917 ft | 130 kts | 309° |
| 2026-04-30 20:52 | 37.64639 | -122.13156 | 1731 ft | 126 kts | 307° |
| 2026-04-30 20:53 | 37.65202 | -122.14005 | 1570 ft | 126 kts | 307° |
| 2026-04-30 20:53 | 37.65767 | -122.14853 | 1388 ft | 126 kts | 307° |
| 2026-04-30 20:53 | 37.66322 | -122.15687 | 1223 ft | 126 kts | 307° |
| 2026-04-30 20:54 | 37.67446 | -122.17373 | 874 ft | 125 kts | 308° |
| 2026-04-30 20:54 | 37.68005 | -122.18216 | 697 ft | 125 kts | 307° |
| 2026-04-30 20:54 | 37.68564 | -122.19052 | 572 ft | 124 kts | 310° |
| 2026-04-30 20:55 | 37.69664 | -122.20706 | 228 ft | 121 kts | 307° |
| 2026-04-30 20:55 | 37.70207 | -122.21519 | 52 ft | 121 kts | 308° |
| 2026-04-30 20:55 | 37.70699 | -122.22258 | 9 ft | 76 kts | 311° |
| 2026-04-30 20:56 | 37.71201 | -122.22988 | 9 ft | 36 kts | 317° |
| 2026-04-30 20:56 | 37.71363 | -122.23116 | 9 ft | 25 kts | 340° |
| 2026-04-30 20:56 | 37.71466 | -122.23023 | 12 ft | 10 kts | 128° |
| 2026-04-30 20:57 | 37.71413 | -122.22943 | 14 ft | 12 kts | 131° |
| 2026-04-30 20:57 | 37.71359 | -122.22864 | 14 ft | 16 kts | 130° |
| 2026-04-30 20:57 | 37.71283 | -122.22749 | 14 ft | 17 kts | 130° |
| 2026-04-30 20:58 | 37.71207 | -122.22635 | 15 ft | 10 kts | 131° |
| 2026-04-30 20:58 | 37.71159 | -122.22563 | 12 ft | 11 kts | 130° |
| 2026-04-30 20:58 | 37.71114 | -122.22497 | 11 ft | 8 kts | 129° |
| 2026-04-30 20:58 | 37.71080 | -122.22445 | 12 ft | 7 kts | 130° |
| 2026-04-30 20:59 | 37.71017 | -122.22351 | 11 ft | 8 kts | 130° |
| 2026-04-30 20:59 | 37.70977 | -122.22291 | 10 ft | 10 kts | 130° |
| 2026-04-30 21:00 | 37.70863 | -122.22121 | 16 ft | 13 kts | 130° |
| 2026-04-30 21:00 | 37.70755 | -122.21958 | 14 ft | 11 kts | 130° |
| 2026-04-30 21:01 | 37.70679 | -122.21819 | 16 ft | 9 kts | 92° |
| 2026-04-30 21:01 | 37.70709 | -122.21768 | 15 ft | 9 kts | 38° |
| 2026-04-30 21:01 | 37.70849 | -122.21622 | 16 ft | 15 kts | 40° |
| 2026-04-30 21:02 | 37.70922 | -122.21550 | 16 ft | 9 kts | 28° |
| 2026-04-30 21:02 | 37.70977 | -122.21555 | 16 ft | 7 kts | 327° |
| 2026-04-30 21:02 | 37.71018 | -122.21588 | 16 ft | 6 kts | 328° |